Time;durP1;ratioP1;P1;durP2;ratioP2;P2;SDS_P1;SDS_P2;PMS_P1;PMS_P2;Temp;Humidity;BMP_temperature;BMP_pressure;BME280_temperature;BME280_humidity;BME280_pressure;Samples;Min_cycle;Max_cycle;Signal;HPM_P1;HPM_P2
2021/10/18 00:02:17;;;;;;;24.25;14.63;;;12.50;97.10;;;;;;5064217;28;20233;-78
2021/10/18 00:04:42;;;;;;;25.75;14.18;;;12.60;97.20;;;;;;5049102;28;20301;-77
2021/10/18 00:07:08;;;;;;;21.58;13.25;;;12.50;97.20;;;;;;5047645;28;20206;-78
2021/10/18 00:09:34;;;;;;;25.63;14.40;;;12.50;97.30;;;;;;5047163;28;20649;-78
2021/10/18 00:12:00;;;;;;;21.77;13.30;;;12.50;97.40;;;;;;5076410;28;20545;-77
2021/10/18 00:14:25;;;;;;;21.55;14.23;;;12.50;97.80;;;;;;5068667;28;20189;-77
2021/10/18 00:16:51;;;;;;;24.23;14.30;;;12.50;97.60;;;;;;5063951;28;20309;-78
2021/10/18 00:19:18;;;;;;;22.23;14.32;;;12.50;97.60;;;;;;5067209;28;20300;-78
2021/10/18 00:21:44;;;;;;;26.25;14.13;;;12.60;97.70;;;;;;5067565;28;20644;-78
2021/10/18 00:24:10;;;;;;;26.73;14.57;;;12.50;97.70;;;;;;5078014;28;20187;-77
2021/10/18 00:26:36;;;;;;;22.95;13.95;;;12.60;97.90;;;;;;5066343;28;20189;-77
2021/10/18 00:29:03;;;;;;;22.63;13.98;;;12.60;97.90;;;;;;5043669;28;20187;-77
2021/10/18 00:31:28;;;;;;;25.73;14.23;;;12.60;97.90;;;;;;5064024;28;20193;-80
2021/10/18 00:33:54;;;;;;;25.33;14.50;;;12.60;98.00;;;;;;5048662;28;20205;-79
2021/10/18 00:36:20;;;;;;;23.13;13.98;;;12.60;98.00;;;;;;5067217;28;20578;-79
2021/10/18 00:38:46;;;;;;;22.23;13.57;;;12.60;98.10;;;;;;5048346;28;20639;-78
2021/10/18 00:41:11;;;;;;;19.58;13.93;;;12.50;98.10;;;;;;5068265;28;20268;-78
2021/10/18 00:43:42;;;;;;;24.88;14.10;;;12.60;98.20;;;;;;5078836;28;20685;-77
2021/10/18 00:46:08;;;;;;;24.17;13.93;;;12.60;98.20;;;;;;5078862;28;20671;-78
2021/10/18 00:48:34;;;;;;;23.13;14.00;;;12.60;98.20;;;;;;5081318;28;20194;-78
2021/10/18 00:51:00;;;;;;;22.50;13.93;;;12.60;98.30;;;;;;5065379;28;20221;-77
2021/10/18 00:53:27;;;;;;;23.48;14.77;;;12.60;98.30;;;;;;5059913;28;20198;-79
2021/10/18 00:55:55;;;;;;;20.90;14.25;;;12.60;98.30;;;;;;5049107;28;20214;-76
2021/10/18 00:58:21;;;;;;;23.67;14.23;;;12.60;98.40;;;;;;5046015;28;20662;-79
2021/10/18 01:00:47;;;;;;;24.23;14.10;;;12.60;98.40;;;;;;5066338;28;20199;-79
2021/10/18 01:03:14;;;;;;;25.83;14.88;;;12.50;98.40;;;;;;5060659;28;20230;-78
2021/10/18 01:05:41;;;;;;;26.88;14.73;;;12.50;98.50;;;;;;5065785;28;21046;-78
2021/10/18 01:08:10;;;;;;;21.25;13.75;;;12.50;98.60;;;;;;5044956;28;20191;-78
2021/10/18 01:10:36;;;;;;;23.30;14.88;;;12.50;98.60;;;;;;5050054;28;20276;-77
2021/10/18 01:13:03;;;;;;;28.65;14.57;;;12.60;98.70;;;;;;5045489;28;20217;-78
2021/10/18 01:15:29;;;;;;;22.10;14.80;;;12.50;98.70;;;;;;5083641;28;20211;-78
2021/10/18 01:17:55;;;;;;;24.60;14.70;;;12.50;98.70;;;;;;5058064;28;20178;-77
2021/10/18 01:20:38;;;;;;;23.17;14.45;;;12.50;98.70;;;;;;5061510;28;20212;-77
2021/10/18 01:23:05;;;;;;;20.67;14.15;;;12.50;98.70;;;;;;5062137;28;20187;-78
2021/10/18 01:25:31;;;;;;;25.17;14.63;;;12.50;98.80;;;;;;5060126;28;20214;-78
2021/10/18 01:27:57;;;;;;;28.80;15.07;;;12.50;98.80;;;;;;5061649;28;20261;-78
2021/10/18 01:30:24;;;;;;;26.38;14.73;;;12.50;98.90;;;;;;5047961;28;20671;-78
2021/10/18 01:32:50;;;;;;;23.50;14.63;;;12.50;98.90;;;;;;5043700;28;20225;-78
2021/10/18 01:35:15;;;;;;;22.20;14.48;;;12.50;98.90;;;;;;5065742;28;20253;-76
2021/10/18 01:37:41;;;;;;;22.35;14.13;;;12.50;98.90;;;;;;5043158;28;20191;-77
2021/10/18 01:40:09;;;;;;;25.02;14.60;;;12.50;98.90;;;;;;5063220;28;20263;-77
2021/10/18 01:42:35;;;;;;;23.55;15.65;;;12.50;99.00;;;;;;5041839;28;20189;-78
2021/10/18 01:45:02;;;;;;;22.85;15.20;;;12.50;99.00;;;;;;5065285;28;20209;-75
2021/10/18 01:47:28;;;;;;;21.13;14.63;;;12.50;99.00;;;;;;5062834;28;20726;-76
2021/10/18 01:49:56;;;;;;;21.00;14.30;;;12.40;99.00;;;;;;5046406;28;20260;-76
2021/10/18 01:52:22;;;;;;;24.60;14.57;;;12.40;99.00;;;;;;5058578;28;20198;-76
2021/10/18 01:54:48;;;;;;;23.02;14.50;;;12.40;99.00;;;;;;5064988;28;20678;-75
2021/10/18 01:57:14;;;;;;;24.95;14.52;;;12.40;99.10;;;;;;5044952;28;20214;-77
2021/10/18 01:59:40;;;;;;;24.10;14.77;;;12.40;99.10;;;;;;5080777;28;20187;-77
2021/10/18 02:02:05;;;;;;;20.27;14.25;;;12.40;99.10;;;;;;5079479;28;20192;-77
2021/10/18 02:04:31;;;;;;;23.45;14.98;;;12.40;99.10;;;;;;5080619;28;20226;-76
2021/10/18 02:06:57;;;;;;;25.27;15.05;;;12.40;99.20;;;;;;5062225;28;20187;-76
2021/10/18 02:09:23;;;;;;;23.17;15.00;;;12.40;99.20;;;;;;5063965;28;20243;-77
2021/10/18 02:11:49;;;;;;;24.13;15.18;;;12.40;99.20;;;;;;5045362;28;20662;-76
2021/10/18 02:14:14;;;;;;;22.23;14.80;;;12.40;99.20;;;;;;5064116;28;20186;-76
2021/10/18 02:16:40;;;;;;;25.38;15.32;;;12.40;99.20;;;;;;5064199;28;20206;-75
2021/10/18 02:19:06;;;;;;;24.13;15.07;;;12.40;99.20;;;;;;5071983;28;20187;-80
2021/10/18 02:21:31;;;;;;;25.40;14.93;;;12.40;99.20;;;;;;5048090;28;20179;-79
2021/10/18 02:23:57;;;;;;;24.13;15.23;;;12.40;99.20;;;;;;5043838;28;20187;-78
2021/10/18 02:26:22;;;;;;;21.88;14.65;;;12.30;99.20;;;;;;5048434;28;20642;-79
2021/10/18 02:28:48;;;;;;;23.05;15.40;;;12.30;99.20;;;;;;5064180;28;20182;-79
2021/10/18 02:31:16;;;;;;;23.23;14.93;;;12.30;99.10;;;;;;5067285;28;20187;-78
2021/10/18 02:33:44;;;;;;;28.80;15.23;;;12.30;99.20;;;;;;5061609;28;20217;-78
2021/10/18 02:36:10;;;;;;;22.98;14.85;;;12.20;99.10;;;;;;5046403;28;20755;-79
2021/10/18 02:38:38;;;;;;;24.00;14.88;;;12.20;99.10;;;;;;5045321;28;20217;-80
2021/10/18 02:41:04;;;;;;;22.50;14.63;;;12.20;99.20;;;;;;5048756;28;20170;-78
2021/10/18 02:43:29;;;;;;;24.73;14.88;;;12.10;99.20;;;;;;5063359;28;20673;-78
2021/10/18 02:45:55;;;;;;;25.15;15.73;;;12.10;99.20;;;;;;5045824;28;20182;-79
2021/10/18 02:48:21;;;;;;;28.55;15.18;;;12.10;99.20;;;;;;5079931;28;20241;-78
2021/10/18 02:50:46;;;;;;;23.63;14.93;;;12.00;99.20;;;;;;5083096;28;20647;-79
2021/10/18 02:53:12;;;;;;;22.35;14.27;;;12.00;99.20;;;;;;5060561;28;20285;-79
2021/10/18 02:55:38;;;;;;;22.75;14.82;;;12.00;99.30;;;;;;5067946;28;20285;-78
2021/10/18 02:58:03;;;;;;;22.17;14.50;;;12.00;99.30;;;;;;5047261;28;20220;-79
2021/10/18 03:00:29;;;;;;;27.25;15.27;;;12.00;99.40;;;;;;5064976;28;20240;-78
2021/10/18 03:02:55;;;;;;;26.75;14.98;;;12.00;99.80;;;;;;5045311;28;20269;-80
2021/10/18 03:05:20;;;;;;;23.75;15.05;;;12.00;99.50;;;;;;5063477;28;20197;-77
2021/10/18 03:07:51;;;;;;;21.77;14.98;;;12.00;99.50;;;;;;5078109;28;20211;-78
2021/10/18 03:10:18;;;;;;;25.95;15.38;;;12.00;99.50;;;;;;5049570;28;20647;-80
2021/10/18 03:12:43;;;;;;;20.55;14.80;;;12.00;99.60;;;;;;5061696;28;20193;-77
2021/10/18 03:15:09;;;;;;;20.85;14.82;;;12.00;99.60;;;;;;5081599;28;20187;-78
2021/10/18 03:17:35;;;;;;;23.25;15.52;;;12.00;99.60;;;;;;5045513;28;20193;-77
2021/10/18 03:20:00;;;;;;;25.08;15.15;;;12.00;99.70;;;;;;5049510;28;20296;-79
2021/10/18 03:22:26;;;;;;;25.25;15.23;;;11.90;99.60;;;;;;5046268;28;20261;-79
2021/10/18 03:24:52;;;;;;;26.42;15.52;;;11.90;99.60;;;;;;5044352;28;20182;-79
2021/10/18 03:27:17;;;;;;;23.42;15.50;;;11.90;99.60;;;;;;5047454;28;20197;-79
2021/10/18 03:29:43;;;;;;;22.05;15.55;;;11.80;99.60;;;;;;5083632;28;20191;-80
2021/10/18 03:32:09;;;;;;;24.88;15.52;;;11.80;99.70;;;;;;5046600;28;20190;-79
2021/10/18 03:34:34;;;;;;;27.02;15.73;;;11.70;99.70;;;;;;5064651;28;20190;-77
2021/10/18 03:37:00;;;;;;;25.08;15.43;;;11.70;99.70;;;;;;5062305;28;20229;-79
2021/10/18 03:39:26;;;;;;;21.20;15.55;;;11.70;99.70;;;;;;5051187;28;20186;-83
2021/10/18 03:41:52;;;;;;;24.67;16.38;;;11.70;99.80;;;;;;5083932;28;20179;-84
2021/10/18 03:44:18;;;;;;;25.33;16.67;;;11.60;99.80;;;;;;5086155;28;20274;-77
2021/10/18 03:46:43;;;;;;;28.83;16.75;;;11.60;99.80;;;;;;5051701;28;20206;-80
2021/10/18 03:49:10;;;;;;;29.02;16.48;;;11.50;99.80;;;;;;5066604;28;20190;-79
2021/10/18 03:51:35;;;;;;;25.33;16.25;;;11.50;99.90;;;;;;5082581;28;20270;-79
2021/10/18 03:54:01;;;;;;;24.80;16.25;;;11.50;99.90;;;;;;5063372;28;20554;-80
2021/10/18 03:56:27;;;;;;;29.88;17.17;;;11.50;99.90;;;;;;5070654;28;20217;-81
2021/10/18 03:58:52;;;;;;;26.77;17.13;;;11.40;99.90;;;;;;5067086;28;20190;-80
2021/10/18 04:01:18;;;;;;;26.92;16.77;;;11.40;99.90;;;;;;5067120;28;20207;-82
2021/10/18 04:03:44;;;;;;;26.88;16.90;;;11.40;99.90;;;;;;5048940;28;20697;-82
2021/10/18 04:06:09;;;;;;;26.65;17.05;;;11.40;99.90;;;;;;5048895;28;20229;-80
2021/10/18 04:08:37;;;;;;;31.02;18.08;;;11.30;99.90;;;;;;5065483;28;20202;-80
2021/10/18 04:11:02;;;;;;;26.38;18.25;;;11.30;99.90;;;;;;5051512;28;20232;-81
2021/10/18 04:13:28;;;;;;;26.60;17.15;;;11.20;99.90;;;;;;5083229;28;20226;-80
2021/10/18 04:15:54;;;;;;;28.55;17.83;;;11.20;99.90;;;;;;5069091;28;20202;-82
2021/10/18 04:18:21;;;;;;;33.38;18.30;;;11.20;99.90;;;;;;5060992;28;20183;-80
2021/10/18 04:20:47;;;;;;;30.75;18.35;;;11.20;99.90;;;;;;5063460;28;20595;-80
2021/10/18 04:23:13;;;;;;;32.28;19.25;;;11.10;99.90;;;;;;5048769;28;20191;-79
2021/10/18 04:25:39;;;;;;;31.38;18.65;;;11.10;99.90;;;;;;5042582;28;20642;-80
2021/10/18 04:28:04;;;;;;;29.63;19.05;;;11.10;99.90;;;;;;5083912;28;20187;-78
2021/10/18 04:30:30;;;;;;;26.08;18.65;;;11.10;99.90;;;;;;5049562;28;20194;-76
2021/10/18 04:32:56;;;;;;;28.48;19.15;;;11.00;99.90;;;;;;5022712;28;20182;-78
2021/10/18 04:35:22;;;;;;;31.60;19.83;;;11.00;99.90;;;;;;5065157;28;20232;-78
2021/10/18 04:37:48;;;;;;;28.92;19.33;;;11.00;99.90;;;;;;5042188;28;20201;-76
2021/10/18 04:40:14;;;;;;;34.60;19.15;;;11.00;99.90;;;;;;5062593;28;20187;-77
2021/10/18 04:42:39;;;;;;;32.55;20.25;;;11.00;99.90;;;;;;5055534;28;20240;-75
2021/10/18 04:45:06;;;;;;;38.10;21.25;;;10.90;99.90;;;;;;5044032;28;20683;-75
2021/10/18 04:47:32;;;;;;;35.90;19.80;;;10.90;99.90;;;;;;5058487;28;20190;-75
2021/10/18 04:49:58;;;;;;;27.90;18.90;;;10.90;99.90;;;;;;5063910;28;20251;-78
2021/10/18 04:52:23;;;;;;;33.00;20.15;;;10.90;99.90;;;;;;5044877;28;20345;-75
2021/10/18 04:54:49;;;;;;;29.83;19.55;;;10.90;99.90;;;;;;5046007;28;20596;-75
2021/10/18 04:57:15;;;;;;;32.13;19.80;;;10.90;99.90;;;;;;5038612;28;20243;-74
2021/10/18 04:59:40;;;;;;;33.08;20.73;;;10.90;99.90;;;;;;5058703;28;20211;-75
2021/10/18 05:02:06;;;;;;;29.23;19.58;;;10.80;99.90;;;;;;5078113;28;20995;-76
2021/10/18 05:04:32;;;;;;;34.47;20.98;;;10.80;99.90;;;;;;5061107;28;20218;-75
2021/10/18 05:06:58;;;;;;;32.58;19.88;;;10.80;99.90;;;;;;5051050;28;20742;-77
2021/10/18 05:09:23;;;;;;;34.55;20.42;;;10.80;99.90;;;;;;5068862;28;20216;-71
2021/10/18 05:11:49;;;;;;;33.67;20.55;;;10.80;99.90;;;;;;5060818;28;20195;-75
2021/10/18 05:14:15;;;;;;;34.03;20.08;;;10.80;99.90;;;;;;5062825;28;20194;-75
2021/10/18 05:16:40;;;;;;;38.95;21.25;;;10.80;99.90;;;;;;5045847;28;20226;-77
2021/10/18 05:19:06;;;;;;;33.67;19.95;;;10.80;99.90;;;;;;5038127;28;20671;-77
2021/10/18 05:21:32;;;;;;;36.38;20.55;;;10.70;99.90;;;;;;5060454;28;20186;-77
2021/10/18 05:23:57;;;;;;;34.63;20.30;;;10.70;99.90;;;;;;5055396;28;20353;-77
2021/10/18 05:26:23;;;;;;;38.60;20.73;;;10.70;99.90;;;;;;5041036;28;20192;-77
2021/10/18 05:28:49;;;;;;;36.88;20.73;;;10.70;99.90;;;;;;5045046;28;20183;-78
2021/10/18 05:31:15;;;;;;;33.45;20.80;;;10.70;99.90;;;;;;5062478;28;20248;-76
2021/10/18 05:33:41;;;;;;;33.10;21.05;;;10.60;99.90;;;;;;5039705;28;20655;-76
2021/10/18 05:36:06;;;;;;;37.80;21.75;;;10.60;99.90;;;;;;5042143;28;20212;-77
2021/10/18 05:38:32;;;;;;;37.47;20.88;;;10.60;99.90;;;;;;5040872;28;20189;-77
2021/10/18 05:40:58;;;;;;;35.17;21.23;;;10.60;99.90;;;;;;5048106;28;20199;-76
2021/10/18 05:43:23;;;;;;;36.80;22.02;;;10.60;99.90;;;;;;5075849;28;20210;-75
2021/10/18 05:45:49;;;;;;;38.63;21.60;;;10.60;99.90;;;;;;5047883;28;20260;-76
2021/10/18 05:48:15;;;;;;;38.63;24.30;;;10.60;99.90;;;;;;5053539;28;20989;-74
2021/10/18 05:50:44;;;;;;;33.72;23.42;;;11.00;99.90;;;;;;5059146;28;20488;-76
2021/10/18 05:53:12;;;;;;;34.08;22.75;;;11.40;99.90;;;;;;5056688;28;20514;-76
2021/10/18 05:55:38;;;;;;;34.80;22.90;;;11.50;99.90;;;;;;5058009;28;20429;-74
2021/10/18 05:58:12;;;;;;;36.20;21.65;;;11.60;99.90;;;;;;5056165;28;20187;-75
2021/10/18 06:00:41;;;;;;;32.60;22.10;;;11.30;99.90;;;;;;5044228;28;20186;-77
2021/10/18 06:03:07;;;;;;;34.80;21.52;;;11.10;99.90;;;;;;5044152;28;20230;-76
2021/10/18 06:05:42;;;;;;;38.58;22.23;;;10.90;99.90;;;;;;5045001;28;20187;-75
2021/10/18 06:08:09;;;;;;;41.75;22.38;;;10.90;99.90;;;;;;5055380;28;20301;-74
2021/10/18 06:10:35;;;;;;;47.05;25.15;;;10.80;99.90;;;;;;5059040;28;20726;-75
2021/10/18 06:13:02;;;;;;;39.50;22.50;;;10.70;99.90;;;;;;5041241;28;20523;-75
2021/10/18 06:15:27;;;;;;;35.45;22.17;;;10.70;99.90;;;;;;5062013;28;20237;-76
2021/10/18 06:17:53;;;;;;;42.72;23.58;;;10.70;99.90;;;;;;5056266;28;20233;-75
2021/10/18 06:20:21;;;;;;;46.55;23.80;;;10.60;99.90;;;;;;5063406;28;20189;-73
2021/10/18 06:22:48;;;;;;;42.30;23.30;;;10.60;99.90;;;;;;5051120;28;20183;-77
2021/10/18 06:25:14;;;;;;;41.28;24.10;;;10.60;99.90;;;;;;5055820;28;20245;-75
2021/10/18 06:27:39;;;;;;;39.45;22.90;;;10.60;99.90;;;;;;5042766;28;20183;-77
2021/10/18 06:30:07;;;;;;;38.75;24.42;;;10.60;99.90;;;;;;5037006;28;20194;-73
2021/10/18 06:32:32;;;;;;;40.15;23.17;;;10.50;99.90;;;;;;5050876;28;20321;-76
2021/10/18 06:34:58;;;;;;;36.40;23.08;;;10.50;99.90;;;;;;5072404;28;20281;-75
2021/10/18 06:37:24;;;;;;;39.65;23.85;;;10.50;99.90;;;;;;5034475;28;20215;-73
2021/10/18 06:39:50;;;;;;;37.33;23.58;;;10.50;99.90;;;;;;5058591;28;20190;-74
2021/10/18 06:42:15;;;;;;;38.40;23.38;;;10.50;99.90;;;;;;5060682;28;20241;-75
2021/10/18 06:44:42;;;;;;;36.42;22.85;;;10.50;99.90;;;;;;5065233;28;20554;-77
2021/10/18 06:47:09;;;;;;;36.70;24.00;;;10.50;99.90;;;;;;5037984;28;20910;-74
2021/10/18 06:49:35;;;;;;;43.78;24.52;;;10.50;99.90;;;;;;5064628;28;20198;-74
2021/10/18 06:52:01;;;;;;;35.90;22.83;;;10.50;99.90;;;;;;5043966;28;20187;-74
2021/10/18 06:54:35;;;;;;;36.63;23.67;;;10.50;99.90;;;;;;5046995;28;20221;-75
2021/10/18 06:57:01;;;;;;;45.65;24.63;;;10.50;99.90;;;;;;5063523;28;20205;-74
2021/10/18 06:59:27;;;;;;;37.95;22.23;;;10.50;99.90;;;;;;5060801;28;20235;-73
2021/10/18 07:01:53;;;;;;;40.58;23.55;;;10.50;99.90;;;;;;5060848;28;20186;-72
2021/10/18 07:04:21;;;;;;;37.08;23.02;;;10.60;99.90;;;;;;5059823;28;20237;-73
2021/10/18 07:06:47;;;;;;;37.40;23.33;;;10.60;99.90;;;;;;5054674;28;20277;-74
2021/10/18 07:09:12;;;;;;;35.53;22.25;;;10.60;99.90;;;;;;5059217;28;20424;-76
2021/10/18 07:11:38;;;;;;;36.60;23.52;;;10.60;99.90;;;;;;5074033;28;20198;-76
2021/10/18 07:14:03;;;;;;;36.08;22.40;;;10.70;99.90;;;;;;5059506;28;20186;-77
2021/10/18 07:16:29;;;;;;;35.25;23.15;;;10.60;99.90;;;;;;5062449;28;20226;-78
2021/10/18 07:18:55;;;;;;;37.63;23.02;;;10.70;99.90;;;;;;5045257;28;20175;-76
2021/10/18 07:21:21;;;;;;;36.22;22.83;;;10.70;99.90;;;;;;5061194;28;20179;-76
2021/10/18 07:23:51;;;;;;;39.53;23.85;;;10.80;99.90;;;;;;5054873;28;20636;-79
2021/10/18 07:26:18;;;;;;;43.85;22.42;;;10.80;99.90;;;;;;5068677;28;20185;-75
2021/10/18 07:28:44;;;;;;;35.47;22.83;;;10.90;99.90;;;;;;5062174;28;20186;-75
2021/10/18 07:31:10;;;;;;;36.13;22.60;;;10.90;99.90;;;;;;5064207;28;20191;-75
2021/10/18 07:33:35;;;;;;;38.08;22.65;;;10.90;99.90;;;;;;5078559;28;20337;-76
2021/10/18 07:36:08;;;;;;;40.53;22.92;;;11.00;99.90;;;;;;5078851;28;20203;-77
2021/10/18 07:38:38;;;;;;;40.85;22.25;;;11.00;99.90;;;;;;5043802;28;20255;-76
2021/10/18 07:41:05;;;;;;;35.03;22.40;;;11.10;99.90;;;;;;5055946;28;20659;-76
2021/10/18 07:43:31;;;;;;;34.72;22.17;;;11.10;99.90;;;;;;5074332;28;20182;-73
2021/10/18 07:45:57;;;;;;;39.38;22.67;;;11.20;99.90;;;;;;5064470;28;20190;-74
2021/10/18 07:48:22;;;;;;;40.28;23.10;;;11.20;99.90;;;;;;5056315;28;20199;-76
2021/10/18 07:50:48;;;;;;;37.25;22.58;;;11.30;99.90;;;;;;5049221;28;20545;-75
2021/10/18 07:53:14;;;;;;;38.53;22.80;;;11.30;99.90;;;;;;5060516;28;20535;-74
2021/10/18 07:55:39;;;;;;;36.25;22.58;;;11.40;99.90;;;;;;5067524;28;20297;-75
2021/10/18 07:58:05;;;;;;;39.70;22.83;;;11.40;99.90;;;;;;5063254;28;20232;-75
2021/10/18 08:00:31;;;;;;;41.20;22.73;;;11.50;99.90;;;;;;5045020;28;20224;-75
2021/10/18 08:02:56;;;;;;;39.88;22.23;;;11.60;99.90;;;;;;5058439;28;20202;-75
2021/10/18 08:05:23;;;;;;;33.42;22.45;;;11.70;99.90;;;;;;5059311;28;20198;-73
2021/10/18 08:07:50;;;;;;;38.55;23.00;;;11.70;99.90;;;;;;5063927;28;20236;-76
2021/10/18 08:10:23;;;;;;;41.97;22.33;;;11.80;99.90;;;;;;5044183;28;20195;-74
2021/10/18 08:12:56;;;;;;;36.70;22.60;;;11.90;99.90;;;;;;5059654;28;20209;-74
2021/10/18 08:15:23;;;;;;;36.63;21.38;;;12.00;99.90;;;;;;5058092;28;20731;-73
2021/10/18 08:17:49;;;;;;;32.97;21.70;;;12.20;99.90;;;;;;5050284;28;20194;-70
2021/10/18 08:20:15;;;;;;;31.95;21.10;;;12.50;99.90;;;;;;5056390;28;20184;-70
2021/10/18 08:22:41;;;;;;;35.67;20.40;;;12.70;99.90;;;;;;5058227;28;20239;-70
2021/10/18 08:25:08;;;;;;;35.92;21.48;;;12.80;99.90;;;;;;5055185;28;20201;-73
2021/10/18 08:27:34;;;;;;;32.63;21.17;;;12.80;99.90;;;;;;5061459;28;20190;-71
2021/10/18 08:30:00;;;;;;;32.47;20.85;;;12.80;99.90;;;;;;5036629;28;20760;-71
2021/10/18 08:32:25;;;;;;;32.88;21.27;;;12.80;99.90;;;;;;5050972;28;20191;-69
2021/10/18 08:34:51;;;;;;;33.85;21.25;;;12.60;99.90;;;;;;5051903;28;20206;-71
2021/10/18 08:37:17;;;;;;;36.83;21.38;;;12.60;99.90;;;;;;5052628;28;20348;-74
2021/10/18 08:42:22;;;;;;;37.13;22.17;;;12.50;99.90;;;;;;5044315;28;20532;-74
2021/10/18 08:44:48;;;;;;;39.58;22.35;;;12.50;99.90;;;;;;5058852;28;20192;-73
2021/10/18 08:47:14;;;;;;;35.08;21.30;;;12.60;99.90;;;;;;5054603;28;20195;-74
2021/10/18 08:49:42;;;;;;;34.75;21.95;;;12.70;99.90;;;;;;5061026;28;20480;-74
2021/10/18 08:52:07;;;;;;;32.30;22.05;;;13.80;97.70;;;;;;5043224;28;20417;-72
2021/10/18 08:54:33;;;;;;;31.77;21.65;;;14.60;95.40;;;;;;5058280;28;20725;-70
2021/10/18 08:56:59;;;;;;;31.85;21.20;;;14.90;93.80;;;;;;5054032;28;21119;-72
2021/10/18 08:59:26;;;;;;;31.20;21.42;;;15.00;93.30;;;;;;5058277;28;20873;-74
2021/10/18 09:01:54;;;;;;;31.27;21.92;;;14.90;92.80;;;;;;5058531;28;20424;-73
2021/10/18 09:04:26;;;;;;;35.33;23.07;;;14.90;92.90;;;;;;5055247;28;20908;-73
2021/10/18 09:06:56;;;;;;;31.30;21.48;;;14.80;93.10;;;;;;5066757;28;20911;-75
2021/10/18 09:09:25;;;;;;;34.28;21.73;;;14.70;93.00;;;;;;5060668;28;20470;-75
2021/10/18 09:11:58;;;;;;;32.75;22.20;;;14.80;93.20;;;;;;5060657;28;20416;-73
2021/10/18 09:14:24;;;;;;;34.25;22.48;;;14.70;93.50;;;;;;5061035;28;20418;-72
2021/10/18 09:16:50;;;;;;;29.75;21.58;;;14.80;93.40;;;;;;5054262;28;20423;-75
2021/10/18 09:19:24;;;;;;;29.58;21.08;;;14.90;92.90;;;;;;5058974;28;20734;-74
2021/10/18 09:21:53;;;;;;;31.75;20.88;;;15.00;92.40;;;;;;5050600;28;20414;-74
2021/10/18 09:24:30;;;;;;;33.30;21.65;;;15.10;92.60;;;;;;5055340;28;20433;-74
2021/10/18 09:27:02;;;;;;;31.20;20.02;;;15.20;92.50;;;;;;5058468;28;20214;-73
2021/10/18 09:29:46;;;;;;;30.88;19.85;;;14.80;93.30;;;;;;5036331;28;20299;-75
2021/10/18 09:32:21;;;;;;;30.45;19.45;;;14.50;93.80;;;;;;5070326;28;20650;-71
2021/10/18 09:34:47;;;;;;;30.77;20.30;;;14.30;94.20;;;;;;5065966;28;20242;-72
2021/10/18 09:37:15;;;;;;;32.40;20.58;;;14.10;94.40;;;;;;5060146;28;20208;-73
2021/10/18 09:39:43;;;;;;;28.83;19.67;;;14.00;94.60;;;;;;5066167;28;20212;-69
2021/10/18 09:42:15;;;;;;;31.35;19.60;;;14.00;95.10;;;;;;5057258;28;20219;-72
2021/10/18 10:52:50;;;;;;;;;;;14.20;96.50;;;;;;5057537;28;19913;-71
2021/10/18 10:55:21;;;;;;;;;;;14.30;96.60;;;;;;5052524;28;19919;-72
2021/10/18 10:57:48;;;;;;;30.63;20.50;;;14.40;96.70;;;;;;5062005;28;20963;-70
2021/10/18 11:00:29;;;;;;;29.58;20.10;;;15.10;95.00;;;;;;5065930;28;20419;-74
2021/10/18 11:03:20;;;;;;;29.90;20.13;;;15.60;93.50;;;;;;5073531;28;21088;-74
2021/10/18 11:06:05;;;;;;;31.20;20.30;;;15.80;93.10;;;;;;5060734;28;20422;-71
2021/10/18 11:08:37;;;;;;;30.23;21.35;;;16.00;93.30;;;;;;5061598;28;20404;-69
2021/10/18 11:11:09;;;;;;;33.85;20.27;;;16.10;92.70;;;;;;5065152;28;20812;-69
2021/10/18 11:13:52;;;;;;;28.95;20.50;;;16.10;92.40;;;;;;5059808;28;20453;-74
2021/10/18 11:16:20;;;;;;;27.80;19.52;;;16.10;92.00;;;;;;5064840;28;20438;-71
2021/10/18 11:18:58;;;;;;;29.70;20.40;;;16.10;92.00;;;;;;5062255;28;20481;-70
2021/10/18 11:21:33;;;;;;;30.70;20.90;;;16.10;92.30;;;;;;5056354;28;20450;-69
2021/10/18 11:24:10;;;;;;;32.58;20.80;;;16.00;92.00;;;;;;5037417;28;20425;-69
2021/10/18 11:26:39;;;;;;;31.83;20.90;;;16.00;92.00;;;;;;5060285;28;20552;-72
2021/10/18 11:29:07;;;;;;;32.05;20.50;;;16.00;92.00;;;;;;5048380;28;20183;-75
2021/10/18 11:31:34;;;;;;;29.08;18.65;;;15.70;92.70;;;;;;5063808;28;20524;-72
2021/10/18 11:34:15;;;;;;;34.53;20.80;;;15.40;93.10;;;;;;5051424;28;20187;-72
2021/10/18 11:36:43;;;;;;;32.35;20.60;;;15.30;93.40;;;;;;5062132;28;20264;-68
2021/10/18 11:39:17;;;;;;;33.20;19.15;;;15.10;93.70;;;;;;5062851;28;20186;-70
2021/10/18 11:42:05;;;;;;;28.17;18.55;;;15.10;93.90;;;;;;5068210;28;20182;-75
2021/10/18 11:44:40;;;;;;;29.98;18.60;;;15.00;94.00;;;;;;5045094;28;20179;-73
2021/10/18 11:47:30;;;;;;;28.63;18.38;;;14.90;94.00;;;;;;5039249;28;20184;-74
2021/10/18 11:50:08;;;;;;;29.42;17.83;;;14.90;94.10;;;;;;5058344;28;20190;-75
2021/10/18 11:52:38;;;;;;;31.88;18.73;;;14.80;94.20;;;;;;5060645;28;20194;-76
2021/10/18 11:55:10;;;;;;;29.85;19.38;;;14.80;94.20;;;;;;5047863;28;20195;-75
2021/10/18 11:57:42;;;;;;;36.53;19.48;;;14.80;94.30;;;;;;5041373;28;20234;-74
2021/10/18 12:00:10;;;;;;;35.38;19.67;;;14.80;94.30;;;;;;5083027;28;20201;-70
2021/10/18 12:02:42;;;;;;;29.92;18.20;;;14.90;94.40;;;;;;5063296;28;20175;-71
2021/10/18 12:05:08;;;;;;;27.23;18.33;;;14.90;94.50;;;;;;5047919;28;20225;-70
2021/10/18 12:07:50;;;;;;;35.05;18.05;;;15.00;94.60;;;;;;5060305;28;20217;-71
2021/10/18 12:11:52;;;;;;;30.60;17.60;;;15.20;94.40;;;;;;5124815;27;20516;-74
2021/10/18 12:14:17;;;;;;;26.33;18.00;;;15.30;94.60;;;;;;5107717;28;20261;-73
2021/10/18 12:16:43;;;;;;;24.92;17.48;;;15.40;94.50;;;;;;5104322;28;20712;-74
2021/10/18 12:19:09;;;;;;;30.67;18.10;;;15.50;94.40;;;;;;5106833;28;20177;-70
2021/10/18 12:21:39;;;;;;;28.45;18.10;;;15.60;94.20;;;;;;5108902;28;20213;-70
2021/10/18 12:24:13;;;;;;;26.15;17.27;;;15.70;94.20;;;;;;5113017;28;20185;-74
2021/10/18 12:26:39;;;;;;;29.98;18.38;;;15.60;94.10;;;;;;5088703;28;20180;-75
2021/10/18 12:29:13;;;;;;;29.93;18.70;;;15.60;94.00;;;;;;5083310;28;20412;-73
2021/10/18 12:31:40;;;;;;;29.08;19.02;;;16.20;92.40;;;;;;5103613;28;20413;-75
2021/10/18 12:34:07;;;;;;;28.48;19.05;;;16.60;91.60;;;;;;5084955;28;20441;-75
2021/10/18 12:36:53;;;;;;;51.60;19.93;;;16.80;91.00;;;;;;5077102;28;20888;-76
2021/10/18 12:39:37;;;;;;;32.08;17.73;;;16.80;90.70;;;;;;5102719;28;20228;-73
2021/10/18 12:42:04;;;;;;;27.25;17.17;;;16.40;91.60;;;;;;5102141;28;20190;-74
2021/10/18 12:44:32;;;;;;;36.50;17.48;;;16.20;92.20;;;;;;5106102;28;20181;-75
2021/10/18 12:46:58;;;;;;;30.42;17.60;;;16.10;92.50;;;;;;5102795;28;20205;-72
2021/10/18 12:49:34;;;;;;;30.05;17.88;;;16.10;92.80;;;;;;5106975;28;20212;-72
2021/10/18 12:52:04;;;;;;;;;;;16.10;93.00;;;;;;5108259;28;20028;-74
2021/10/18 12:54:44;;;;;;;;;;;16.20;93.20;;;;;;5088320;28;19911;-75
2021/10/18 12:57:12;;;;;;;;;;;16.30;93.10;;;;;;5101621;28;19916;-76
2021/10/18 12:59:58;;;;;;;;;;;16.20;92.90;;;;;;5127100;27;19908;-72
2021/10/18 13:02:25;;;;;;;;;;;16.10;93.00;;;;;;5109227;28;20345;-76
2021/10/18 13:05:11;;;;;;;;;;;16.10;93.20;;;;;;5119405;28;19907;-72
2021/10/18 13:07:37;;;;;;;;;;;16.10;93.30;;;;;;5104044;28;19908;-76
2021/10/18 13:10:04;;;;;;;;;;;16.20;93.40;;;;;;5090912;28;19931;-75
2021/10/18 13:12:29;;;;;;;;;;;16.40;93.60;;;;;;5102101;28;20281;-76
2021/10/18 13:14:55;;;;;;;;;;;16.60;93.40;;;;;;5085153;28;19912;-76
2021/10/18 13:17:22;;;;;;;112.07;18.85;;;16.90;93.20;;;;;;5085240;28;20194;-75
2021/10/18 13:19:48;;;;;;;26.73;17.35;;;17.20;92.50;;;;;;5101823;28;20405;-75
2021/10/18 13:22:14;;;;;;;24.93;17.13;;;17.80;89.70;;;;;;5092166;28;20465;-74
2021/10/18 13:24:39;;;;;;;24.15;17.08;;;18.20;87.30;;;;;;5086166;28;20414;-74
2021/10/18 13:27:05;;;;;;;23.65;16.15;;;18.20;85.60;;;;;;5085775;28;20898;-74
2021/10/18 13:29:32;;;;;;;26.17;17.13;;;18.10;86.00;;;;;;5088458;28;20412;-75
2021/10/18 13:31:58;;;;;;;24.63;16.63;;;18.00;85.70;;;;;;5088059;28;20382;-75
2021/10/18 13:34:24;;;;;;;27.90;16.60;;;18.00;86.10;;;;;;5093958;28;20451;-76
2021/10/18 13:36:50;;;;;;;24.10;16.30;;;17.90;86.50;;;;;;5088249;28;20402;-76
2021/10/18 13:39:16;;;;;;;26.08;17.00;;;17.80;86.10;;;;;;5088560;28;20410;-74
2021/10/18 13:41:41;;;;;;;23.30;16.70;;;17.80;86.30;;;;;;5077800;28;20411;-73
2021/10/18 13:44:08;;;;;;;22.70;15.63;;;17.80;86.80;;;;;;5073453;28;20774;-74
2021/10/18 13:46:35;;;;;;;22.60;15.85;;;17.70;87.00;;;;;;5092493;28;20409;-75